Terminal Aerodrome Forecast
Issued by NWS Cleveland, OH

Home | Current Version | Previous Version | Graphics & Text | Print | Product List | Glossary On
Versions: 1 2 3 4 5 6 7 8 9 10 11 12 13 14 15 16 17 18 19 20
000
FTUS41 KCLE 240500
TAFMFD
TAF
KMFD 240536Z 2406/2506 14007KT 6SM BR BKN012 OVC030
     FM240730 14007KT 3SM -RA BR OVC006
     FM240900 14010KT 1SM BR OVC002
     FM241600 16015G25KT 3SM BR OVC006
     FM242000 18020G35KT P6SM -SHRA OVC012
     FM242200 21025G40KT P6SM OVC015=

USA.gov is the U.S. government's official web portal to all federal, state and local government web resources and services.